createdAt,value
2019-03-21T00:02:10.576Z,3.40
2019-03-21T00:04:46.365Z,3.40
2019-03-21T00:07:21.272Z,3.50
2019-03-21T00:10:54.679Z,3.40
2019-03-21T00:13:28.373Z,3.40
2019-03-21T00:16:02.602Z,3.40
2019-03-21T00:18:36.540Z,3.30
2019-03-21T00:21:10.250Z,3.30
2019-03-21T00:23:44.045Z,3.30
2019-03-21T00:26:17.902Z,3.20
2019-03-21T00:28:51.806Z,3.10
2019-03-21T00:31:25.619Z,3.10
2019-03-21T00:33:59.461Z,3.00
2019-03-21T00:36:33.368Z,3.00
2019-03-21T00:39:08.606Z,2.90
2019-03-21T00:41:42.252Z,2.70
2019-03-21T00:44:18.482Z,2.70
2019-03-21T00:46:51.616Z,2.70
2019-03-21T00:49:25.375Z,2.70
2019-03-21T00:51:59.082Z,2.70
2019-03-21T00:54:33.892Z,2.80
2019-03-21T00:57:07.688Z,2.80
2019-03-21T00:59:41.464Z,2.90
2019-03-21T01:02:15.172Z,2.80
2019-03-21T01:04:48.917Z,2.90
2019-03-21T01:07:22.781Z,2.80
2019-03-21T01:09:56.500Z,2.80
2019-03-21T01:12:30.210Z,2.90
2019-03-21T01:15:04.155Z,2.90
2019-03-21T01:17:37.900Z,2.90
2019-03-21T01:20:13.383Z,2.80
2019-03-21T01:22:47.173Z,2.80
2019-03-21T01:25:35.210Z,2.80
2019-03-21T01:28:08.939Z,2.80
2019-03-21T01:30:42.743Z,2.80
2019-03-21T01:33:16.453Z,2.80
2019-03-21T01:35:50.168Z,2.80
2019-03-21T01:38:23.985Z,2.90
2019-03-21T01:40:57.814Z,2.90
2019-03-21T01:43:31.523Z,2.90
2019-03-21T01:46:08.819Z,2.90
2019-03-21T01:48:42.523Z,2.90
2019-03-21T01:51:16.292Z,2.90
2019-03-21T01:53:50.243Z,2.80
2019-03-21T01:56:24.144Z,2.80
2019-03-21T01:58:57.887Z,2.60
2019-03-21T02:01:31.688Z,2.70
2019-03-21T02:04:05.712Z,2.70
2019-03-21T02:06:39.523Z,2.70
2019-03-21T02:09:13.294Z,2.70
2019-03-21T02:11:46.958Z,2.70
2019-03-21T02:14:20.685Z,2.70
2019-03-21T02:16:54.454Z,2.60
2019-03-21T02:19:28.208Z,2.60
2019-03-21T02:22:01.905Z,2.40
2019-03-21T02:24:35.826Z,2.40
2019-03-21T02:27:09.540Z,2.40
2019-03-21T02:29:43.219Z,2.50
2019-03-21T02:32:16.909Z,2.70
2019-03-21T02:34:50.615Z,2.80
2019-03-21T02:37:24.340Z,2.80
2019-03-21T02:40:00.121Z,2.90
2019-03-21T02:42:33.964Z,2.80
2019-03-21T02:45:09.805Z,2.90
2019-03-21T02:47:43.695Z,3.10
2019-03-21T02:50:28.121Z,3.20
2019-03-21T02:53:02.154Z,3.30
2019-03-21T02:55:35.890Z,3.30
2019-03-21T02:58:09.678Z,3.30
2019-03-21T03:00:43.383Z,3.20
2019-03-21T03:03:17.204Z,3.20
2019-03-21T03:05:51.053Z,3.10
2019-03-21T03:08:24.814Z,2.90
2019-03-21T03:10:58.683Z,2.80
2019-03-21T03:13:32.488Z,2.80
2019-03-21T03:16:06.246Z,2.80
2019-03-21T03:18:40.006Z,3.00
2019-03-21T03:21:13.912Z,3.00
2019-03-21T03:23:47.858Z,2.90
2019-03-21T03:26:21.722Z,2.80
2019-03-21T03:28:55.514Z,2.80
2019-03-21T03:31:29.266Z,2.80
2019-03-21T03:34:03.095Z,2.90
2019-03-21T03:36:37.388Z,2.90
2019-03-21T03:39:12.258Z,2.80
2019-03-21T03:41:46.075Z,2.80
2019-03-21T03:44:20.643Z,2.90
2019-03-21T03:46:54.384Z,2.90
2019-03-21T03:49:28.108Z,2.80
2019-03-21T03:52:01.865Z,3.00
2019-03-21T03:54:35.637Z,3.00
2019-03-21T03:57:09.358Z,2.90
2019-03-21T03:59:43.185Z,2.70
2019-03-21T04:02:17.142Z,2.80
2019-03-21T04:04:51.206Z,2.80
2019-03-21T04:07:25.102Z,2.80
2019-03-21T04:09:59.015Z,2.80
2019-03-21T04:12:33.021Z,3.00
2019-03-21T04:15:07.884Z,3.00
2019-03-21T04:17:41.636Z,3.00
2019-03-21T04:20:16.840Z,2.90
2019-03-21T04:22:50.754Z,2.80
2019-03-21T04:25:34.472Z,2.60
2019-03-21T04:28:11.859Z,2.40
2019-03-21T04:30:47.525Z,2.30
2019-03-21T04:33:22.893Z,2.20
2019-03-21T04:35:56.985Z,2.10
2019-03-21T04:38:30.618Z,2.00
2019-03-21T04:41:04.558Z,1.90
2019-03-21T04:43:38.459Z,1.90
2019-03-21T04:46:12.308Z,1.90
2019-03-21T04:48:45.971Z,2.10
2019-03-21T04:51:19.902Z,2.10
2019-03-21T04:53:53.777Z,2.20
2019-03-21T04:56:27.629Z,2.10
2019-03-21T04:59:01.402Z,2.20
2019-03-21T05:01:35.230Z,2.10
2019-03-21T05:04:09.175Z,2.10
2019-03-21T05:06:44.054Z,2.00
2019-03-21T05:09:19.397Z,2.00
2019-03-21T05:11:53.234Z,2.10
2019-03-21T05:14:26.968Z,2.20
2019-03-21T05:17:00.728Z,2.30
2019-03-21T05:19:34.572Z,2.40
2019-03-21T05:22:08.357Z,2.50
2019-03-21T05:24:42.202Z,2.50
2019-03-21T05:27:16.142Z,2.50
2019-03-21T05:29:49.931Z,2.50
2019-03-21T05:32:24.771Z,2.30
2019-03-21T05:34:58.487Z,2.20
2019-03-21T05:37:32.512Z,2.10
2019-03-21T05:40:08.618Z,2.10
2019-03-21T05:42:47.513Z,2.10
2019-03-21T05:45:23.237Z,2.30
2019-03-21T05:47:56.953Z,2.40
2019-03-21T05:50:30.723Z,2.60
2019-03-21T05:53:04.504Z,3.10
2019-03-21T05:55:38.240Z,3.40
2019-03-21T05:58:12.001Z,3.40
2019-03-21T06:00:46.589Z,3.80
2019-03-21T06:03:25.022Z,4.10
2019-03-21T06:06:08.272Z,4.10
2019-03-21T06:08:42.239Z,4.50
2019-03-21T06:11:16.102Z,4.90
2019-03-21T06:13:49.880Z,5.30
2019-03-21T06:16:23.634Z,6.00
2019-03-21T06:19:53.769Z,6.20
2019-03-21T06:22:50.848Z,6.50
2019-03-21T06:26:08.191Z,6.70
2019-03-21T06:28:42.031Z,7.60
2019-03-21T06:31:15.738Z,8.20
2019-03-21T06:33:49.614Z,8.80
2019-03-21T06:36:23.392Z,8.70
2019-03-21T06:38:57.161Z,8.80
2019-03-21T06:41:30.994Z,8.80
2019-03-21T06:44:05.148Z,8.70
2019-03-21T06:46:48.869Z,7.80
2019-03-21T06:49:14.632Z,7.50
2019-03-21T06:51:49.480Z,7.40
2019-03-21T06:54:23.318Z,7.20
2019-03-21T06:56:57.164Z,7.40
2019-03-21T06:59:30.948Z,7.70
2019-03-21T07:02:04.777Z,7.70
2019-03-21T07:04:38.581Z,7.90
2019-03-21T07:07:12.327Z,8.20
2019-03-21T07:09:46.537Z,8.10
2019-03-21T07:12:20.415Z,8.00
2019-03-21T07:14:54.144Z,8.20
2019-03-21T07:17:28.006Z,8.10
2019-03-21T07:20:01.719Z,8.60
2019-03-21T07:22:35.604Z,8.60
2019-03-21T07:25:09.620Z,9.00
2019-03-21T07:27:43.431Z,9.20
2019-03-21T07:30:17.238Z,9.70
2019-03-21T07:32:50.978Z,9.80
2019-03-21T07:35:24.760Z,9.80
2019-03-21T07:37:58.598Z,9.80
2019-03-21T07:40:32.384Z,9.80
2019-03-21T07:43:06.124Z,9.30
2019-03-21T07:45:39.936Z,9.50
2019-03-21T07:48:13.780Z,9.60
2019-03-21T07:50:47.478Z,9.40
2019-03-21T07:53:22.211Z,9.20
2019-03-21T07:55:56.165Z,9.00
2019-03-21T07:58:29.910Z,9.10
2019-03-21T08:01:03.800Z,9.20
2019-03-21T08:03:37.659Z,9.70
2019-03-21T08:06:11.289Z,10.00
2019-03-21T08:08:44.946Z,10.10
2019-03-21T08:11:18.743Z,9.60
2019-03-21T08:13:52.477Z,9.80
2019-03-21T08:16:26.232Z,10.00
2019-03-21T08:18:59.998Z,10.50
2019-03-21T08:21:33.829Z,10.80
2019-03-21T08:24:07.557Z,10.70
2019-03-21T08:26:41.274Z,10.60
2019-03-21T08:29:15.008Z,10.20
2019-03-21T08:31:49.034Z,10.40
2019-03-21T08:34:23.939Z,10.30
2019-03-21T08:36:57.859Z,10.20
2019-03-21T08:39:31.877Z,10.20
2019-03-21T08:42:05.723Z,10.40
2019-03-21T08:44:39.508Z,10.30
2019-03-21T08:47:13.309Z,10.40
2019-03-21T08:49:47.074Z,10.70
2019-03-21T08:52:20.849Z,10.30
2019-03-21T08:54:54.616Z,10.70
2019-03-21T08:57:28.387Z,11.10
2019-03-21T09:00:02.304Z,10.90
2019-03-21T09:02:37.267Z,11.10
2019-03-21T09:05:11.563Z,11.40
2019-03-21T09:07:45.290Z,11.50
2019-03-21T09:10:19.054Z,11.40
2019-03-21T09:12:53.045Z,11.10
2019-03-21T09:15:26.732Z,11.20
2019-03-21T09:18:00.512Z,11.50
2019-03-21T09:20:34.209Z,11.60
2019-03-21T09:23:08.025Z,11.50
2019-03-21T09:25:41.818Z,11.70
2019-03-21T09:28:15.615Z,11.80
2019-03-21T09:30:50.659Z,11.50
2019-03-21T09:33:24.671Z,11.40
2019-03-21T09:35:58.431Z,11.50
2019-03-21T09:38:32.256Z,11.50
2019-03-21T09:41:06.681Z,11.40
2019-03-21T09:43:40.564Z,11.70
2019-03-21T09:46:14.268Z,11.60
2019-03-21T09:48:48.036Z,11.40
2019-03-21T09:51:30.609Z,11.50
2019-03-21T09:54:08.927Z,11.60
2019-03-21T09:56:33.890Z,11.70
2019-03-21T09:59:07.822Z,11.70
2019-03-21T10:01:41.630Z,11.80
2019-03-21T10:04:15.513Z,11.70
2019-03-21T10:06:50.300Z,11.90
2019-03-21T10:09:24.072Z,11.90
2019-03-21T10:11:58.836Z,12.00
2019-03-21T10:14:32.768Z,12.20
2019-03-21T10:17:06.650Z,12.30
2019-03-21T10:19:40.476Z,12.30
2019-03-21T10:22:14.221Z,12.20
2019-03-21T10:24:48.042Z,12.30
2019-03-21T10:27:21.955Z,12.20
2019-03-21T10:29:55.672Z,12.40
2019-03-21T10:32:29.484Z,12.20
2019-03-21T10:35:03.485Z,12.30
2019-03-21T10:37:37.278Z,12.40
2019-03-21T10:40:11.169Z,12.50
2019-03-21T10:42:44.924Z,12.80
2019-03-21T10:45:18.770Z,12.90
2019-03-21T10:47:53.619Z,12.90
2019-03-21T10:50:33.084Z,12.80
2019-03-21T10:53:07.861Z,12.90
2019-03-21T10:55:42.846Z,12.90
2019-03-21T10:58:16.637Z,12.90
2019-03-21T11:00:50.495Z,13.00
2019-03-21T11:03:24.291Z,13.00
2019-03-21T11:05:58.050Z,13.00
2019-03-21T11:08:32.015Z,13.10
2019-03-21T11:11:05.767Z,12.90
2019-03-21T11:13:39.614Z,13.00
2019-03-21T11:16:13.397Z,13.10
2019-03-21T11:18:47.150Z,13.20
2019-03-21T11:21:20.872Z,13.20
2019-03-21T11:23:54.786Z,13.20
2019-03-21T11:26:30.526Z,13.20
2019-03-21T11:29:04.198Z,13.40
2019-03-21T11:31:38.071Z,13.60
2019-03-21T11:34:11.910Z,13.70
2019-03-21T11:36:45.741Z,13.70
2019-03-21T11:39:19.466Z,13.60
2019-03-21T11:41:53.466Z,13.70
2019-03-21T11:44:27.360Z,13.70
2019-03-21T11:47:01.243Z,13.80
2019-03-21T11:49:35.103Z,13.90
2019-03-21T11:52:17.740Z,13.90
2019-03-21T11:54:44.881Z,14.00
2019-03-21T11:57:18.742Z,14.00
2019-03-21T11:59:52.577Z,14.10
2019-03-21T12:02:27.524Z,14.20
2019-03-21T12:05:01.496Z,14.20
2019-03-21T12:07:35.161Z,14.00
2019-03-21T12:10:09.193Z,14.10
2019-03-21T12:12:43.075Z,14.10
2019-03-21T12:15:17.158Z,14.30
2019-03-21T12:17:50.909Z,14.30
2019-03-21T12:20:32.628Z,14.20
2019-03-21T12:23:07.352Z,14.30
2019-03-21T12:25:41.091Z,14.40
2019-03-21T12:28:14.837Z,14.50
2019-03-21T12:30:48.479Z,14.60
2019-03-21T12:33:22.211Z,14.60
2019-03-21T12:35:56.188Z,14.70
2019-03-21T12:38:29.957Z,14.70
2019-03-21T12:41:03.826Z,14.60
2019-03-21T12:43:37.689Z,14.60
2019-03-21T12:46:12.564Z,14.60
2019-03-21T12:48:46.354Z,14.70
2019-03-21T12:51:20.326Z,14.90
2019-03-21T12:53:54.274Z,14.90
2019-03-21T12:56:28.175Z,14.80
2019-03-21T12:59:01.884Z,14.70
2019-03-21T13:01:35.600Z,14.70
2019-03-21T13:04:09.430Z,14.80
2019-03-21T13:06:43.370Z,14.70
2019-03-21T13:09:17.298Z,14.90
2019-03-21T13:11:51.049Z,14.80
2019-03-21T13:14:24.833Z,14.90
2019-03-21T13:16:58.716Z,15.00
2019-03-21T13:19:32.475Z,15.10
2019-03-21T13:22:06.269Z,15.10
2019-03-21T13:24:40.087Z,15.10
2019-03-21T13:27:13.912Z,15.10
2019-03-21T13:29:47.839Z,15.20
2019-03-21T13:32:21.814Z,15.20
2019-03-21T13:34:55.515Z,15.30
2019-03-21T13:37:29.386Z,15.30
2019-03-21T13:40:03.566Z,15.40
2019-03-21T13:42:37.478Z,15.40
2019-03-21T13:45:11.485Z,15.40
2019-03-21T13:47:45.279Z,15.40
2019-03-21T13:50:19.129Z,15.30
2019-03-21T13:53:03.986Z,15.40
2019-03-21T13:55:28.644Z,15.40
2019-03-21T13:58:02.448Z,15.30
2019-03-21T14:00:36.355Z,15.30
2019-03-21T14:03:10.160Z,15.30
2019-03-21T14:05:44.081Z,15.40
2019-03-21T14:08:17.871Z,15.50
2019-03-21T14:10:51.667Z,15.60
2019-03-21T14:13:25.435Z,15.60
2019-03-21T14:15:59.403Z,15.70
2019-03-21T14:18:33.125Z,15.70
2019-03-21T14:21:06.973Z,15.60
2019-03-21T14:23:43.481Z,15.70
2019-03-21T14:26:16.508Z,15.70
2019-03-21T14:28:50.274Z,15.70
2019-03-21T14:31:24.135Z,15.70
2019-03-21T14:33:57.905Z,15.70
2019-03-21T14:36:31.709Z,15.70
2019-03-21T14:39:06.524Z,15.70
2019-03-21T14:41:40.321Z,15.80
2019-03-21T14:44:14.145Z,15.80
2019-03-21T14:46:47.909Z,15.80
2019-03-21T14:49:22.913Z,15.80
2019-03-21T14:51:56.660Z,15.90
2019-03-21T14:54:30.567Z,15.90
2019-03-21T14:57:04.468Z,15.90
2019-03-21T14:59:38.321Z,15.90
2019-03-21T15:02:12.131Z,15.90
2019-03-21T15:04:45.991Z,15.80
2019-03-21T15:07:19.837Z,15.70
2019-03-21T15:09:53.659Z,15.70
2019-03-21T15:12:29.618Z,15.70
2019-03-21T15:15:04.162Z,15.70
2019-03-21T15:17:37.935Z,15.50
2019-03-21T15:20:13.538Z,15.60
2019-03-21T15:22:47.564Z,15.50
2019-03-21T15:25:21.406Z,15.60
2019-03-21T15:27:55.113Z,15.50
2019-03-21T15:30:28.962Z,15.50
2019-03-21T15:33:02.976Z,15.50
2019-03-21T15:35:37.025Z,15.50
2019-03-21T15:38:10.886Z,15.50
2019-03-21T15:40:44.735Z,15.50
2019-03-21T15:43:18.598Z,15.50
2019-03-21T15:45:52.333Z,15.50
2019-03-21T15:48:26.289Z,15.50
2019-03-21T15:51:04.859Z,15.50
2019-03-21T15:53:35.664Z,15.40
2019-03-21T15:56:09.458Z,15.40
2019-03-21T15:58:43.337Z,15.40
2019-03-21T16:01:17.251Z,15.30
2019-03-21T16:03:52.982Z,15.30
2019-03-21T16:06:26.760Z,15.30
2019-03-21T16:09:00.556Z,15.20
2019-03-21T16:11:34.438Z,15.20
2019-03-21T16:14:08.413Z,15.20
2019-03-21T16:16:42.344Z,15.20
2019-03-21T16:19:16.270Z,15.10
2019-03-21T16:21:49.977Z,15.20
2019-03-21T16:24:23.763Z,15.20
2019-03-21T16:26:57.619Z,15.10
2019-03-21T16:29:31.453Z,15.10
2019-03-21T16:32:05.474Z,15.00
2019-03-21T16:34:39.317Z,14.90
2019-03-21T16:37:13.108Z,14.90
2019-03-21T16:39:46.883Z,14.90
2019-03-21T16:42:20.728Z,14.80
2019-03-21T16:44:54.575Z,14.80
2019-03-21T16:47:28.294Z,14.70
2019-03-21T16:50:02.728Z,14.60
2019-03-21T16:52:36.602Z,14.70
2019-03-21T16:55:10.653Z,14.60
2019-03-21T16:57:44.403Z,14.60
2019-03-21T17:00:18.514Z,14.50
2019-03-21T17:02:52.723Z,14.40
2019-03-21T17:05:26.508Z,14.30
2019-03-21T17:08:10.455Z,14.20
2019-03-21T17:10:36.282Z,14.00
2019-03-21T17:13:10.275Z,13.90
2019-03-21T17:15:44.247Z,14.00
2019-03-21T17:18:18.145Z,13.90
2019-03-21T17:20:52.108Z,13.70
2019-03-21T17:23:26.944Z,13.70
2019-03-21T17:26:00.885Z,13.60
2019-03-21T17:28:34.712Z,13.60
2019-03-21T17:31:08.543Z,13.50
2019-03-21T17:33:42.314Z,13.40
2019-03-21T17:36:16.220Z,13.20
2019-03-21T17:38:50.056Z,13.10
2019-03-21T17:41:23.985Z,13.00
2019-03-21T17:43:57.824Z,12.90
2019-03-21T17:46:31.584Z,12.70
2019-03-21T17:49:05.645Z,12.70
2019-03-21T17:51:39.522Z,12.50
2019-03-21T17:54:13.265Z,12.50
2019-03-21T17:56:47.130Z,12.40
2019-03-21T17:59:21.109Z,12.30
2019-03-21T18:01:55.122Z,12.20
2019-03-21T18:04:29.029Z,12.20
2019-03-21T18:07:03.005Z,12.10
2019-03-21T18:09:36.976Z,11.90
2019-03-21T18:12:10.857Z,11.80
2019-03-21T18:14:44.837Z,11.60
2019-03-21T18:17:18.683Z,11.50
2019-03-21T18:19:52.514Z,11.40
2019-03-21T18:22:27.385Z,11.30
2019-03-21T18:25:01.246Z,11.10
2019-03-21T18:27:35.043Z,11.00
2019-03-21T18:30:09.416Z,10.80
2019-03-21T18:32:43.249Z,10.80
2019-03-21T18:35:17.386Z,10.80
2019-03-21T18:37:51.240Z,10.80
2019-03-21T18:40:24.998Z,10.80
2019-03-21T18:42:58.871Z,10.70
2019-03-21T18:45:32.632Z,10.70
2019-03-21T18:48:06.508Z,10.60
2019-03-21T18:50:40.482Z,10.50
2019-03-21T18:53:14.276Z,10.30
2019-03-21T18:55:48.098Z,10.20
2019-03-21T18:58:21.831Z,10.00
2019-03-21T19:00:55.860Z,9.80
2019-03-21T19:03:29.791Z,9.60
2019-03-21T19:06:03.870Z,9.50
2019-03-21T19:08:37.767Z,9.40
2019-03-21T19:11:11.833Z,9.30
2019-03-21T19:13:45.732Z,9.10
2019-03-21T19:16:19.603Z,8.90
2019-03-21T19:18:53.546Z,8.80
2019-03-21T19:21:27.441Z,8.70
2019-03-21T19:24:01.216Z,8.70
2019-03-21T19:26:35.040Z,8.60
2019-03-21T19:29:08.867Z,8.50
2019-03-21T19:31:42.761Z,8.50
2019-03-21T19:34:16.671Z,8.50
2019-03-21T19:36:50.467Z,8.50
2019-03-21T19:39:24.594Z,8.40
2019-03-21T19:41:58.659Z,8.40
2019-03-21T19:44:32.661Z,8.40
2019-03-21T19:47:06.499Z,8.40
2019-03-21T19:49:40.405Z,8.40
2019-03-21T19:52:14.215Z,8.30
2019-03-21T19:54:48.081Z,8.30
2019-03-21T19:57:22.672Z,8.30
2019-03-21T19:59:56.537Z,8.20
2019-03-21T20:02:30.374Z,8.10
2019-03-21T20:05:05.098Z,8.00
2019-03-21T20:07:38.899Z,7.90
2019-03-21T20:10:14.346Z,7.90
2019-03-21T20:12:48.397Z,7.80
2019-03-21T20:15:24.127Z,7.80
2019-03-21T20:17:58.218Z,7.70
2019-03-21T20:20:32.034Z,7.70
2019-03-21T20:23:06.127Z,7.70
2019-03-21T20:25:43.057Z,7.70
2019-03-21T20:28:16.105Z,7.60
2019-03-21T20:30:50.052Z,7.60
2019-03-21T20:33:23.945Z,7.50
2019-03-21T20:35:58.204Z,7.50
2019-03-21T20:38:32.293Z,7.60
2019-03-21T20:41:07.210Z,7.50
2019-03-21T20:43:41.159Z,7.60
2019-03-21T20:46:14.947Z,7.50
2019-03-21T20:48:46.430Z,7.50
2019-03-21T20:51:20.158Z,7.40
2019-03-21T20:53:54.238Z,7.40
2019-03-21T20:56:28.039Z,7.30
2019-03-21T20:59:01.874Z,7.30
2019-03-21T21:01:35.856Z,7.20
2019-03-21T21:04:09.867Z,7.20
2019-03-21T21:06:43.936Z,7.20
2019-03-21T21:09:18.056Z,7.20
2019-03-21T21:11:52.120Z,7.20
2019-03-21T21:14:26.056Z,7.10
2019-03-21T21:17:00.015Z,7.00
2019-03-21T21:19:34.975Z,7.00
2019-03-21T21:22:09.042Z,6.90
2019-03-21T21:24:42.824Z,6.90
2019-03-21T21:27:16.601Z,6.80
2019-03-21T21:29:50.597Z,6.80
2019-03-21T21:32:24.519Z,6.80
2019-03-21T21:34:58.331Z,6.80
2019-03-21T21:37:32.380Z,6.70
2019-03-21T21:40:06.842Z,6.70
2019-03-21T21:42:40.971Z,6.60
2019-03-21T21:45:15.661Z,6.60
2019-03-21T21:47:49.527Z,6.70
2019-03-21T21:50:23.518Z,6.80
2019-03-21T21:52:57.270Z,6.80
2019-03-21T21:55:31.137Z,6.80
2019-03-21T21:58:06.867Z,6.70
2019-03-21T22:00:40.675Z,6.70
2019-03-21T22:03:14.548Z,6.70
2019-03-21T22:05:48.532Z,6.60
2019-03-21T22:08:22.402Z,6.60
2019-03-21T22:10:56.286Z,6.50
2019-03-21T22:13:31.277Z,6.40
2019-03-21T22:16:05.167Z,6.30
2019-03-21T22:18:38.921Z,6.30
2019-03-21T22:21:12.735Z,6.10
2019-03-21T22:23:46.707Z,6.00
2019-03-21T22:26:29.215Z,6.00
2019-03-21T22:28:56.140Z,5.90
2019-03-21T22:31:29.988Z,5.90
2019-03-21T22:34:03.978Z,5.90
2019-03-21T22:36:48.898Z,5.80
2019-03-21T22:39:13.500Z,5.90
2019-03-21T22:41:47.268Z,6.00
2019-03-21T22:44:21.050Z,6.00
2019-03-21T22:46:54.759Z,6.00
2019-03-21T22:49:28.767Z,5.90
2019-03-21T22:52:02.526Z,5.90
2019-03-21T22:54:36.472Z,5.90
2019-03-21T22:57:10.267Z,5.90
2019-03-21T22:59:44.016Z,5.90
2019-03-21T23:02:18.100Z,5.90
2019-03-21T23:04:52.126Z,5.80
2019-03-21T23:07:25.839Z,5.90
2019-03-21T23:09:59.622Z,5.80
2019-03-21T23:12:33.441Z,5.80
2019-03-21T23:15:07.413Z,5.80
2019-03-21T23:17:41.397Z,5.80
2019-03-21T23:20:15.415Z,5.80
2019-03-21T23:22:49.196Z,6.00
2019-03-21T23:25:24.110Z,6.00
2019-03-21T23:27:57.832Z,6.00
2019-03-21T23:30:33.498Z,5.90
2019-03-21T23:33:07.382Z,6.00
2019-03-21T23:35:41.198Z,5.90
2019-03-21T23:38:15.055Z,5.90
2019-03-21T23:40:48.855Z,5.80
2019-03-21T23:43:22.701Z,5.80
2019-03-21T23:45:56.444Z,5.70
2019-03-21T23:48:30.231Z,5.60
2019-03-21T23:51:04.125Z,5.50
2019-03-21T23:53:37.889Z,5.50
2019-03-21T23:56:11.630Z,5.40
2019-03-21T23:58:45.530Z,5.30
